sensor_id;sensor_type;location;lat;lon;timestamp;temperature;humidity
3418;DHT22;68007;51.312;12.372;2023-07-31T00:00:44;19.70;88.10
3418;DHT22;68007;51.312;12.372;2023-07-31T00:03:13;19.60;88.20
3418;DHT22;68007;51.312;12.372;2023-07-31T00:05:40;19.50;88.30
3418;DHT22;68007;51.312;12.372;2023-07-31T00:08:09;19.50;89.00
3418;DHT22;68007;51.312;12.372;2023-07-31T00:10:37;19.50;89.00
3418;DHT22;68007;51.312;12.372;2023-07-31T00:13:04;19.40;89.90
3418;DHT22;68007;51.312;12.372;2023-07-31T00:15:32;19.50;89.20
3418;DHT22;68007;51.312;12.372;2023-07-31T00:17:59;19.60;89.10
3418;DHT22;68007;51.312;12.372;2023-07-31T00:20:27;19.60;89.60
3418;DHT22;68007;51.312;12.372;2023-07-31T00:22:55;19.50;88.40
3418;DHT22;68007;51.312;12.372;2023-07-31T00:25:23;19.50;88.30
3418;DHT22;68007;51.312;12.372;2023-07-31T00:27:51;19.40;88.90
3418;DHT22;68007;51.312;12.372;2023-07-31T00:30:18;19.40;88.90
3418;DHT22;68007;51.312;12.372;2023-07-31T00:32:46;19.40;89.50
3418;DHT22;68007;51.312;12.372;2023-07-31T00:35:14;19.40;89.30
3418;DHT22;68007;51.312;12.372;2023-07-31T00:37:41;19.40;88.90
3418;DHT22;68007;51.312;12.372;2023-07-31T00:40:09;19.40;89.50
3418;DHT22;68007;51.312;12.372;2023-07-31T00:42:38;19.40;89.90
3418;DHT22;68007;51.312;12.372;2023-07-31T00:45:06;19.40;89.70
3418;DHT22;68007;51.312;12.372;2023-07-31T00:47:33;19.40;89.80
3418;DHT22;68007;51.312;12.372;2023-07-31T00:50:01;19.40;90.00
3418;DHT22;68007;51.312;12.372;2023-07-31T00:52:28;19.50;89.40
3418;DHT22;68007;51.312;12.372;2023-07-31T00:54:56;19.40;88.90
3418;DHT22;68007;51.312;12.372;2023-07-31T00:57:23;19.40;88.70
3418;DHT22;68007;51.312;12.372;2023-07-31T00:59:52;19.30;88.30
3418;DHT22;68007;51.312;12.372;2023-07-31T01:02:20;19.30;88.70
3418;DHT22;68007;51.312;12.372;2023-07-31T01:04:47;19.20;89.20
3418;DHT22;68007;51.312;12.372;2023-07-31T01:07:22;19.20;89.50
3418;DHT22;68007;51.312;12.372;2023-07-31T01:10:04;19.30;89.20
3418;DHT22;68007;51.312;12.372;2023-07-31T01:12:34;19.30;88.50
3418;DHT22;68007;51.312;12.372;2023-07-31T01:15:07;19.30;88.40
3418;DHT22;68007;51.312;12.372;2023-07-31T01:17:37;19.30;88.30
3418;DHT22;68007;51.312;12.372;2023-07-31T01:20:08;19.30;88.20
3418;DHT22;68007;51.312;12.372;2023-07-31T01:22:54;19.30;88.30
3418;DHT22;68007;51.312;12.372;2023-07-31T01:25:48;19.20;88.10
3418;DHT22;68007;51.312;12.372;2023-07-31T01:28:20;19.20;88.40
3418;DHT22;68007;51.312;12.372;2023-07-31T01:30:48;19.10;88.80
3418;DHT22;68007;51.312;12.372;2023-07-31T01:33:16;19.20;88.80
3418;DHT22;68007;51.312;12.372;2023-07-31T01:35:45;19.20;88.90
3418;DHT22;68007;51.312;12.372;2023-07-31T01:38:13;19.20;88.70
3418;DHT22;68007;51.312;12.372;2023-07-31T01:40:41;19.20;89.10
3418;DHT22;68007;51.312;12.372;2023-07-31T01:43:10;19.20;88.70
3418;DHT22;68007;51.312;12.372;2023-07-31T01:45:38;19.10;88.50
3418;DHT22;68007;51.312;12.372;2023-07-31T01:48:05;19.10;89.00
3418;DHT22;68007;51.312;12.372;2023-07-31T01:50:33;19.10;89.00
3418;DHT22;68007;51.312;12.372;2023-07-31T01:53:00;19.00;89.50
3418;DHT22;68007;51.312;12.372;2023-07-31T01:55:28;18.90;89.70
3418;DHT22;68007;51.312;12.372;2023-07-31T01:57:55;19.00;90.00
3418;DHT22;68007;51.312;12.372;2023-07-31T02:00:24;19.00;90.10
3418;DHT22;68007;51.312;12.372;2023-07-31T02:02:52;19.00;89.70
3418;DHT22;68007;51.312;12.372;2023-07-31T02:05:19;18.90;89.80
3418;DHT22;68007;51.312;12.372;2023-07-31T02:07:47;18.90;89.90
3418;DHT22;68007;51.312;12.372;2023-07-31T02:10:14;18.90;90.00
3418;DHT22;68007;51.312;12.372;2023-07-31T02:12:42;19.00;90.10
3418;DHT22;68007;51.312;12.372;2023-07-31T02:15:10;19.00;90.10
3418;DHT22;68007;51.312;12.372;2023-07-31T02:17:38;19.00;90.00
3418;DHT22;68007;51.312;12.372;2023-07-31T02:20:07;19.00;90.10
3418;DHT22;68007;51.312;12.372;2023-07-31T02:22:35;18.90;90.20
3418;DHT22;68007;51.312;12.372;2023-07-31T02:25:02;18.90;90.40
3418;DHT22;68007;51.312;12.372;2023-07-31T02:27:30;19.00;90.20
3418;DHT22;68007;51.312;12.372;2023-07-31T02:29:57;19.00;90.20
3418;DHT22;68007;51.312;12.372;2023-07-31T02:32:26;19.00;90.10
3418;DHT22;68007;51.312;12.372;2023-07-31T02:34:55;18.90;90.10
3418;DHT22;68007;51.312;12.372;2023-07-31T02:37:22;18.80;90.60
3418;DHT22;68007;51.312;12.372;2023-07-31T02:39:50;18.80;90.40
3418;DHT22;68007;51.312;12.372;2023-07-31T02:42:17;18.70;90.60
3418;DHT22;68007;51.312;12.372;2023-07-31T02:44:45;18.70;90.70
3418;DHT22;68007;51.312;12.372;2023-07-31T02:47:12;18.70;90.60
3418;DHT22;68007;51.312;12.372;2023-07-31T02:49:40;18.70;90.90
3418;DHT22;68007;51.312;12.372;2023-07-31T02:52:09;18.60;90.90
3418;DHT22;68007;51.312;12.372;2023-07-31T02:54:36;18.70;90.90
3418;DHT22;68007;51.312;12.372;2023-07-31T02:57:04;18.70;90.90
3418;DHT22;68007;51.312;12.372;2023-07-31T02:59:32;18.70;90.80
3418;DHT22;68007;51.312;12.372;2023-07-31T03:01:59;18.70;90.80
3418;DHT22;68007;51.312;12.372;2023-07-31T03:04:27;18.70;90.80
3418;DHT22;68007;51.312;12.372;2023-07-31T03:06:54;18.70;90.90
3418;DHT22;68007;51.312;12.372;2023-07-31T03:09:23;18.70;90.90
3418;DHT22;68007;51.312;12.372;2023-07-31T03:11:51;18.70;91.00
3418;DHT22;68007;51.312;12.372;2023-07-31T03:14:18;18.70;90.90
3418;DHT22;68007;51.312;12.372;2023-07-31T03:16:46;18.70;91.00
3418;DHT22;68007;51.312;12.372;2023-07-31T03:19:14;18.50;91.10
3418;DHT22;68007;51.312;12.372;2023-07-31T03:21:42;18.50;91.40
3418;DHT22;68007;51.312;12.372;2023-07-31T03:24:09;18.40;91.50
3418;DHT22;68007;51.312;12.372;2023-07-31T03:26:39;18.30;91.70
3418;DHT22;68007;51.312;12.372;2023-07-31T03:29:07;18.30;91.90
3418;DHT22;68007;51.312;12.372;2023-07-31T03:31:35;18.20;91.90
3418;DHT22;68007;51.312;12.372;2023-07-31T03:34:02;18.20;92.00
3418;DHT22;68007;51.312;12.372;2023-07-31T03:36:30;18.30;92.00
3418;DHT22;68007;51.312;12.372;2023-07-31T03:38:58;18.30;92.00
3418;DHT22;68007;51.312;12.372;2023-07-31T03:41:25;18.20;92.00
3418;DHT22;68007;51.312;12.372;2023-07-31T03:43:54;18.20;92.10
3418;DHT22;68007;51.312;12.372;2023-07-31T03:46:22;18.20;92.20
3418;DHT22;68007;51.312;12.372;2023-07-31T03:48:50;18.20;92.30
3418;DHT22;68007;51.312;12.372;2023-07-31T03:51:18;18.20;92.50
3418;DHT22;68007;51.312;12.372;2023-07-31T03:53:45;18.20;92.50
3418;DHT22;68007;51.312;12.372;2023-07-31T03:56:13;18.20;92.60
3418;DHT22;68007;51.312;12.372;2023-07-31T03:58:40;18.20;92.80
3418;DHT22;68007;51.312;12.372;2023-07-31T04:01:09;18.20;92.70
3418;DHT22;68007;51.312;12.372;2023-07-31T04:03:37;18.20;92.80
3418;DHT22;68007;51.312;12.372;2023-07-31T04:06:05;18.20;92.90
3418;DHT22;68007;51.312;12.372;2023-07-31T04:08:33;18.30;92.90
3418;DHT22;68007;51.312;12.372;2023-07-31T04:11:00;18.30;92.80
3418;DHT22;68007;51.312;12.372;2023-07-31T04:13:29;18.30;92.80
3418;DHT22;68007;51.312;12.372;2023-07-31T04:15:57;18.30;92.90
3418;DHT22;68007;51.312;12.372;2023-07-31T04:18:26;18.30;93.00
3418;DHT22;68007;51.312;12.372;2023-07-31T04:20:53;18.40;92.90
3418;DHT22;68007;51.312;12.372;2023-07-31T04:23:21;18.40;93.00
3418;DHT22;68007;51.312;12.372;2023-07-31T04:25:49;18.40;93.10
3418;DHT22;68007;51.312;12.372;2023-07-31T04:28:16;18.30;93.30
3418;DHT22;68007;51.312;12.372;2023-07-31T04:30:44;18.20;93.40
3418;DHT22;68007;51.312;12.372;2023-07-31T04:33:11;18.20;93.50
3418;DHT22;68007;51.312;12.372;2023-07-31T04:35:40;18.30;93.60
3418;DHT22;68007;51.312;12.372;2023-07-31T04:38:07;18.30;93.60
3418;DHT22;68007;51.312;12.372;2023-07-31T04:40:35;18.20;93.80
3418;DHT22;68007;51.312;12.372;2023-07-31T04:43:03;18.20;93.90
3418;DHT22;68007;51.312;12.372;2023-07-31T04:45:30;18.30;93.80
3418;DHT22;68007;51.312;12.372;2023-07-31T04:47:58;18.30;94.00
3418;DHT22;68007;51.312;12.372;2023-07-31T04:50:28;18.20;94.10
3418;DHT22;68007;51.312;12.372;2023-07-31T04:52:57;18.30;93.90
3418;DHT22;68007;51.312;12.372;2023-07-31T04:55:25;18.30;93.90
3418;DHT22;68007;51.312;12.372;2023-07-31T04:57:52;18.40;93.90
3418;DHT22;68007;51.312;12.372;2023-07-31T05:00:20;18.40;93.70
3418;DHT22;68007;51.312;12.372;2023-07-31T05:02:48;18.40;94.00
3418;DHT22;68007;51.312;12.372;2023-07-31T05:05:15;18.30;94.30
3418;DHT22;68007;51.312;12.372;2023-07-31T05:07:43;18.30;94.50
3418;DHT22;68007;51.312;12.372;2023-07-31T05:10:11;18.30;94.60
3418;DHT22;68007;51.312;12.372;2023-07-31T05:12:39;18.20;94.60
3418;DHT22;68007;51.312;12.372;2023-07-31T05:15:07;18.20;94.70
3418;DHT22;68007;51.312;12.372;2023-07-31T05:17:35;18.20;94.80
3418;DHT22;68007;51.312;12.372;2023-07-31T05:20:03;18.20;95.00
3418;DHT22;68007;51.312;12.372;2023-07-31T05:22:30;18.20;95.10
3418;DHT22;68007;51.312;12.372;2023-07-31T05:24:58;18.20;94.90
3418;DHT22;68007;51.312;12.372;2023-07-31T05:27:27;18.30;94.90
3418;DHT22;68007;51.312;12.372;2023-07-31T05:29:54;18.30;95.00
3418;DHT22;68007;51.312;12.372;2023-07-31T05:32:22;18.20;95.20
3418;DHT22;68007;51.312;12.372;2023-07-31T05:34:51;18.30;95.30
3418;DHT22;68007;51.312;12.372;2023-07-31T05:37:19;18.30;95.30
3418;DHT22;68007;51.312;12.372;2023-07-31T05:39:46;18.20;95.70
3418;DHT22;68007;51.312;12.372;2023-07-31T05:42:14;18.10;95.80
3418;DHT22;68007;51.312;12.372;2023-07-31T05:44:43;18.10;95.90
3418;DHT22;68007;51.312;12.372;2023-07-31T05:47:11;18.20;95.80
3418;DHT22;68007;51.312;12.372;2023-07-31T05:49:38;18.20;95.70
3418;DHT22;68007;51.312;12.372;2023-07-31T05:52:06;18.20;95.80
3418;DHT22;68007;51.312;12.372;2023-07-31T05:54:34;18.20;95.70
3418;DHT22;68007;51.312;12.372;2023-07-31T05:57:01;18.30;95.80
3418;DHT22;68007;51.312;12.372;2023-07-31T05:59:29;18.30;95.70
3418;DHT22;68007;51.312;12.372;2023-07-31T06:02:00;18.30;95.80
3418;DHT22;68007;51.312;12.372;2023-07-31T06:04:28;18.30;95.80
3418;DHT22;68007;51.312;12.372;2023-07-31T06:06:56;18.30;95.60
3418;DHT22;68007;51.312;12.372;2023-07-31T06:09:23;18.30;95.60
3418;DHT22;68007;51.312;12.372;2023-07-31T06:11:52;18.30;95.90
3418;DHT22;68007;51.312;12.372;2023-07-31T06:14:19;18.30;95.90
3418;DHT22;68007;51.312;12.372;2023-07-31T06:16:47;18.30;95.80
3418;DHT22;68007;51.312;12.372;2023-07-31T06:19:16;18.30;95.70
3418;DHT22;68007;51.312;12.372;2023-07-31T06:21:43;18.30;95.70
3418;DHT22;68007;51.312;12.372;2023-07-31T06:24:11;18.30;95.70
3418;DHT22;68007;51.312;12.372;2023-07-31T06:26:39;18.20;95.70
3418;DHT22;68007;51.312;12.372;2023-07-31T06:29:06;18.30;95.80
3418;DHT22;68007;51.312;12.372;2023-07-31T06:31:34;18.30;95.80
3418;DHT22;68007;51.312;12.372;2023-07-31T06:34:01;18.20;95.80
3418;DHT22;68007;51.312;12.372;2023-07-31T06:36:30;18.20;95.80
3418;DHT22;68007;51.312;12.372;2023-07-31T06:38:58;18.20;95.80
3418;DHT22;68007;51.312;12.372;2023-07-31T06:41:25;18.20;96.20
3418;DHT22;68007;51.312;12.372;2023-07-31T06:43:53;18.20;95.90
3418;DHT22;68007;51.312;12.372;2023-07-31T06:46:20;18.30;95.70
3418;DHT22;68007;51.312;12.372;2023-07-31T06:48:47;18.30;95.80
3418;DHT22;68007;51.312;12.372;2023-07-31T06:51:15;18.30;95.70
3418;DHT22;68007;51.312;12.372;2023-07-31T06:53:44;18.30;95.70
3418;DHT22;68007;51.312;12.372;2023-07-31T06:56:12;18.40;95.60
3418;DHT22;68007;51.312;12.372;2023-07-31T06:58:39;18.40;95.70
3418;DHT22;68007;51.312;12.372;2023-07-31T07:01:07;18.30;95.70
3418;DHT22;68007;51.312;12.372;2023-07-31T07:03:34;18.30;95.70
3418;DHT22;68007;51.312;12.372;2023-07-31T07:06:02;18.40;95.70
3418;DHT22;68007;51.312;12.372;2023-07-31T07:08:30;18.40;95.60
3418;DHT22;68007;51.312;12.372;2023-07-31T07:10:58;18.40;95.70
3418;DHT22;68007;51.312;12.372;2023-07-31T07:13:26;18.40;95.70
3418;DHT22;68007;51.312;12.372;2023-07-31T07:15:53;18.30;95.80
3418;DHT22;68007;51.312;12.372;2023-07-31T07:18:21;18.30;95.80
3418;DHT22;68007;51.312;12.372;2023-07-31T07:20:50;18.30;95.90
3418;DHT22;68007;51.312;12.372;2023-07-31T07:23:18;18.30;95.90
3418;DHT22;68007;51.312;12.372;2023-07-31T07:25:46;18.20;95.80
3418;DHT22;68007;51.312;12.372;2023-07-31T07:28:15;18.30;95.80
3418;DHT22;68007;51.312;12.372;2023-07-31T07:30:43;18.30;95.80
3418;DHT22;68007;51.312;12.372;2023-07-31T07:33:10;18.30;95.90
3418;DHT22;68007;51.312;12.372;2023-07-31T07:35:38;18.30;96.10
3418;DHT22;68007;51.312;12.372;2023-07-31T07:38:06;18.30;96.10
3418;DHT22;68007;51.312;12.372;2023-07-31T07:40:38;18.30;96.10
3418;DHT22;68007;51.312;12.372;2023-07-31T07:43:06;18.40;96.10
3418;DHT22;68007;51.312;12.372;2023-07-31T07:45:34;18.30;96.10
3418;DHT22;68007;51.312;12.372;2023-07-31T07:48:02;18.40;96.00
3418;DHT22;68007;51.312;12.372;2023-07-31T07:50:30;18.40;96.00
3418;DHT22;68007;51.312;12.372;2023-07-31T07:52:57;18.30;96.00
3418;DHT22;68007;51.312;12.372;2023-07-31T07:55:25;18.30;96.00
3418;DHT22;68007;51.312;12.372;2023-07-31T07:57:52;18.40;96.00
3418;DHT22;68007;51.312;12.372;2023-07-31T08:00:20;18.40;96.00
3418;DHT22;68007;51.312;12.372;2023-07-31T08:02:49;18.40;95.90
3418;DHT22;68007;51.312;12.372;2023-07-31T08:05:16;18.40;95.80
3418;DHT22;68007;51.312;12.372;2023-07-31T08:07:44;18.50;95.70
3418;DHT22;68007;51.312;12.372;2023-07-31T08:10:12;18.50;95.60
3418;DHT22;68007;51.312;12.372;2023-07-31T08:12:39;18.50;95.60
3418;DHT22;68007;51.312;12.372;2023-07-31T08:15:07;18.60;95.50
3418;DHT22;68007;51.312;12.372;2023-07-31T08:17:35;18.60;95.40
3418;DHT22;68007;51.312;12.372;2023-07-31T08:20:05;18.60;95.40
3418;DHT22;68007;51.312;12.372;2023-07-31T08:22:33;18.60;95.40
3418;DHT22;68007;51.312;12.372;2023-07-31T08:25:00;18.60;95.40
3418;DHT22;68007;51.312;12.372;2023-07-31T08:27:29;18.60;95.30
3418;DHT22;68007;51.312;12.372;2023-07-31T08:29:56;18.60;95.30
3418;DHT22;68007;51.312;12.372;2023-07-31T08:32:24;18.60;95.30
3418;DHT22;68007;51.312;12.372;2023-07-31T08:34:51;18.60;95.60
3418;DHT22;68007;51.312;12.372;2023-07-31T08:37:20;18.70;95.20
3418;DHT22;68007;51.312;12.372;2023-07-31T08:39:48;18.70;95.20
3418;DHT22;68007;51.312;12.372;2023-07-31T08:42:15;18.80;95.20
3418;DHT22;68007;51.312;12.372;2023-07-31T08:44:43;18.80;95.20
3418;DHT22;68007;51.312;12.372;2023-07-31T08:47:12;18.80;95.10
3418;DHT22;68007;51.312;12.372;2023-07-31T08:49:39;18.80;95.00
3418;DHT22;68007;51.312;12.372;2023-07-31T08:52:08;18.80;95.00
3418;DHT22;68007;51.312;12.372;2023-07-31T08:54:37;18.90;94.80
3418;DHT22;68007;51.312;12.372;2023-07-31T08:57:05;18.90;94.80
3418;DHT22;68007;51.312;12.372;2023-07-31T08:59:35;19.00;94.90
3418;DHT22;68007;51.312;12.372;2023-07-31T09:02:06;19.00;94.70
3418;DHT22;68007;51.312;12.372;2023-07-31T09:04:35;19.00;94.70
3418;DHT22;68007;51.312;12.372;2023-07-31T09:07:03;19.10;94.60
3418;DHT22;68007;51.312;12.372;2023-07-31T09:09:31;19.10;94.60
3418;DHT22;68007;51.312;12.372;2023-07-31T09:12:00;19.20;94.70
3418;DHT22;68007;51.312;12.372;2023-07-31T09:14:28;19.20;94.60
3418;DHT22;68007;51.312;12.372;2023-07-31T09:16:58;19.20;94.50
3418;DHT22;68007;51.312;12.372;2023-07-31T09:19:26;19.20;94.40
3418;DHT22;68007;51.312;12.372;2023-07-31T09:21:54;19.30;94.20
3418;DHT22;68007;51.312;12.372;2023-07-31T09:24:28;19.30;94.40
3418;DHT22;68007;51.312;12.372;2023-07-31T09:26:57;19.30;94.50
3418;DHT22;68007;51.312;12.372;2023-07-31T09:29:28;19.30;94.60
3418;DHT22;68007;51.312;12.372;2023-07-31T09:31:56;19.30;94.60
3418;DHT22;68007;51.312;12.372;2023-07-31T09:34:29;19.30;94.50
3418;DHT22;68007;51.312;12.372;2023-07-31T09:37:01;19.30;94.50
3418;DHT22;68007;51.312;12.372;2023-07-31T09:39:29;19.30;94.40
3418;DHT22;68007;51.312;12.372;2023-07-31T09:41:57;19.40;94.40
3418;DHT22;68007;51.312;12.372;2023-07-31T09:44:39;19.30;94.20
3418;DHT22;68007;51.312;12.372;2023-07-31T09:47:21;19.40;94.10
3418;DHT22;68007;51.312;12.372;2023-07-31T09:49:49;19.40;94.00
3418;DHT22;68007;51.312;12.372;2023-07-31T09:52:17;19.40;94.00
3418;DHT22;68007;51.312;12.372;2023-07-31T09:54:44;19.40;93.90
3418;DHT22;68007;51.312;12.372;2023-07-31T09:57:12;19.40;93.90
3418;DHT22;68007;51.312;12.372;2023-07-31T09:59:41;19.40;93.90
3418;DHT22;68007;51.312;12.372;2023-07-31T10:02:12;19.40;93.90
3418;DHT22;68007;51.312;12.372;2023-07-31T10:04:43;19.40;93.90
3418;DHT22;68007;51.312;12.372;2023-07-31T10:07:14;19.40;93.90
3418;DHT22;68007;51.312;12.372;2023-07-31T10:09:43;19.40;94.40
3418;DHT22;68007;51.312;12.372;2023-07-31T10:12:12;19.40;94.50
3418;DHT22;68007;51.312;12.372;2023-07-31T10:14:42;19.50;94.70
3418;DHT22;68007;51.312;12.372;2023-07-31T10:17:10;19.40;94.70
3418;DHT22;68007;51.312;12.372;2023-07-31T10:19:39;19.50;94.70
3418;DHT22;68007;51.312;12.372;2023-07-31T10:22:08;19.50;94.70
3418;DHT22;68007;51.312;12.372;2023-07-31T10:24:37;19.60;94.60
3418;DHT22;68007;51.312;12.372;2023-07-31T10:27:05;19.60;94.50
3418;DHT22;68007;51.312;12.372;2023-07-31T10:29:35;19.70;94.40
3418;DHT22;68007;51.312;12.372;2023-07-31T10:32:04;19.70;93.90
3418;DHT22;68007;51.312;12.372;2023-07-31T10:34:35;19.80;93.90
3418;DHT22;68007;51.312;12.372;2023-07-31T10:37:23;19.80;93.90
3418;DHT22;68007;51.312;12.372;2023-07-31T10:39:58;19.80;93.60
3418;DHT22;68007;51.312;12.372;2023-07-31T10:42:33;19.80;93.70
3418;DHT22;68007;51.312;12.372;2023-07-31T10:45:03;19.90;93.70
3418;DHT22;68007;51.312;12.372;2023-07-31T10:47:37;19.80;93.70
3418;DHT22;68007;51.312;12.372;2023-07-31T10:50:18;19.90;93.70
3418;DHT22;68007;51.312;12.372;2023-07-31T10:52:50;20.00;93.70
3418;DHT22;68007;51.312;12.372;2023-07-31T10:55:26;19.90;93.60
3418;DHT22;68007;51.312;12.372;2023-07-31T10:57:55;19.90;93.50
3418;DHT22;68007;51.312;12.372;2023-07-31T11:00:25;20.00;93.70
3418;DHT22;68007;51.312;12.372;2023-07-31T11:02:59;20.10;93.50
3418;DHT22;68007;51.312;12.372;2023-07-31T11:05:42;20.10;93.50
3418;DHT22;68007;51.312;12.372;2023-07-31T11:08:15;20.20;93.10
3418;DHT22;68007;51.312;12.372;2023-07-31T11:10:43;20.10;93.20
3418;DHT22;68007;51.312;12.372;2023-07-31T11:13:11;20.20;92.90
3418;DHT22;68007;51.312;12.372;2023-07-31T11:15:38;20.30;92.60
3418;DHT22;68007;51.312;12.372;2023-07-31T11:18:07;20.30;92.50
3418;DHT22;68007;51.312;12.372;2023-07-31T11:20:37;20.30;92.50
3418;DHT22;68007;51.312;12.372;2023-07-31T11:23:07;20.40;92.60
3418;DHT22;68007;51.312;12.372;2023-07-31T11:25:36;20.40;92.60
3418;DHT22;68007;51.312;12.372;2023-07-31T11:28:05;20.50;92.50
3418;DHT22;68007;51.312;12.372;2023-07-31T11:30:33;20.50;92.20
3418;DHT22;68007;51.312;12.372;2023-07-31T11:33:02;20.60;92.30
3418;DHT22;68007;51.312;12.372;2023-07-31T11:35:32;20.60;92.50
3418;DHT22;68007;51.312;12.372;2023-07-31T11:38:00;20.70;92.60
3418;DHT22;68007;51.312;12.372;2023-07-31T11:40:28;20.80;92.70
3418;DHT22;68007;51.312;12.372;2023-07-31T11:42:57;20.90;92.40
3418;DHT22;68007;51.312;12.372;2023-07-31T11:45:26;20.90;92.40
3418;DHT22;68007;51.312;12.372;2023-07-31T11:47:55;20.90;92.40
3418;DHT22;68007;51.312;12.372;2023-07-31T11:50:24;21.00;91.90
3418;DHT22;68007;51.312;12.372;2023-07-31T11:52:57;21.00;91.90
3418;DHT22;68007;51.312;12.372;2023-07-31T11:55:26;21.00;91.50
3418;DHT22;68007;51.312;12.372;2023-07-31T11:57:57;21.00;91.50
3418;DHT22;68007;51.312;12.372;2023-07-31T12:00:26;20.90;91.90
3418;DHT22;68007;51.312;12.372;2023-07-31T12:02:54;20.90;92.20
3418;DHT22;68007;51.312;12.372;2023-07-31T12:05:22;20.90;92.20
3418;DHT22;68007;51.312;12.372;2023-07-31T12:07:52;20.90;92.30
3418;DHT22;68007;51.312;12.372;2023-07-31T12:10:28;20.90;92.00
3418;DHT22;68007;51.312;12.372;2023-07-31T12:13:01;21.00;92.00
3418;DHT22;68007;51.312;12.372;2023-07-31T12:15:39;21.00;92.00
3418;DHT22;68007;51.312;12.372;2023-07-31T12:18:08;21.10;92.00
3418;DHT22;68007;51.312;12.372;2023-07-31T12:20:40;21.00;91.40
3418;DHT22;68007;51.312;12.372;2023-07-31T12:23:13;21.00;91.00
3418;DHT22;68007;51.312;12.372;2023-07-31T12:25:42;21.00;91.00
3418;DHT22;68007;51.312;12.372;2023-07-31T12:28:10;20.90;91.00
3418;DHT22;68007;51.312;12.372;2023-07-31T12:30:41;20.90;91.00
3418;DHT22;68007;51.312;12.372;2023-07-31T12:33:13;21.00;90.90
3418;DHT22;68007;51.312;12.372;2023-07-31T12:35:44;21.10;90.80
3418;DHT22;68007;51.312;12.372;2023-07-31T12:38:12;21.10;90.90
3418;DHT22;68007;51.312;12.372;2023-07-31T12:40:41;21.10;90.80
3418;DHT22;68007;51.312;12.372;2023-07-31T12:43:09;21.10;91.10
3418;DHT22;68007;51.312;12.372;2023-07-31T12:45:36;21.20;90.70
3418;DHT22;68007;51.312;12.372;2023-07-31T12:48:04;21.20;90.80
3418;DHT22;68007;51.312;12.372;2023-07-31T12:50:32;21.20;90.90
3418;DHT22;68007;51.312;12.372;2023-07-31T12:52:59;21.30;91.10
3418;DHT22;68007;51.312;12.372;2023-07-31T12:55:26;21.30;91.50
3418;DHT22;68007;51.312;12.372;2023-07-31T12:57:55;21.40;91.80
3418;DHT22;68007;51.312;12.372;2023-07-31T13:00:23;21.50;91.70
3418;DHT22;68007;51.312;12.372;2023-07-31T13:02:52;21.60;91.60
3418;DHT22;68007;51.312;12.372;2023-07-31T13:05:19;21.60;91.60
3418;DHT22;68007;51.312;12.372;2023-07-31T13:07:47;21.70;91.30
3418;DHT22;68007;51.312;12.372;2023-07-31T13:10:14;21.70;91.20
3418;DHT22;68007;51.312;12.372;2023-07-31T13:12:42;21.80;91.00
3418;DHT22;68007;51.312;12.372;2023-07-31T13:15:12;21.90;91.10
3418;DHT22;68007;51.312;12.372;2023-07-31T13:17:40;21.90;90.90
3418;DHT22;68007;51.312;12.372;2023-07-31T13:20:08;21.90;90.80
3418;DHT22;68007;51.312;12.372;2023-07-31T13:22:36;22.00;90.20
3418;DHT22;68007;51.312;12.372;2023-07-31T13:25:04;22.00;89.70
3418;DHT22;68007;51.312;12.372;2023-07-31T13:27:32;22.10;89.50
3418;DHT22;68007;51.312;12.372;2023-07-31T13:29:59;22.10;86.00
3418;DHT22;68007;51.312;12.372;2023-07-31T13:32:29;22.10;85.70
3418;DHT22;68007;51.312;12.372;2023-07-31T13:34:57;22.10;85.40
3418;DHT22;68007;51.312;12.372;2023-07-31T13:37:24;22.10;84.40
3418;DHT22;68007;51.312;12.372;2023-07-31T13:39:52;22.20;84.70
3418;DHT22;68007;51.312;12.372;2023-07-31T13:42:19;22.20;84.60
3418;DHT22;68007;51.312;12.372;2023-07-31T13:44:48;22.30;84.30
3418;DHT22;68007;51.312;12.372;2023-07-31T13:47:15;22.40;84.00
3418;DHT22;68007;51.312;12.372;2023-07-31T13:49:44;22.40;83.70
3418;DHT22;68007;51.312;12.372;2023-07-31T13:52:12;22.40;83.00
3418;DHT22;68007;51.312;12.372;2023-07-31T13:54:39;22.40;83.00
3418;DHT22;68007;51.312;12.372;2023-07-31T13:57:08;22.40;82.90
3418;DHT22;68007;51.312;12.372;2023-07-31T13:59:36;22.30;84.30
3418;DHT22;68007;51.312;12.372;2023-07-31T14:02:04;22.40;83.80
3418;DHT22;68007;51.312;12.372;2023-07-31T14:04:31;22.30;83.60
3418;DHT22;68007;51.312;12.372;2023-07-31T14:07:00;22.30;83.60
3418;DHT22;68007;51.312;12.372;2023-07-31T14:09:27;22.40;83.70
3418;DHT22;68007;51.312;12.372;2023-07-31T14:11:55;22.30;83.40
3418;DHT22;68007;51.312;12.372;2023-07-31T14:14:23;22.30;83.40
3418;DHT22;68007;51.312;12.372;2023-07-31T14:16:50;22.30;83.80
3418;DHT22;68007;51.312;12.372;2023-07-31T14:19:18;22.30;83.50
3418;DHT22;68007;51.312;12.372;2023-07-31T14:21:46;22.20;83.60
3418;DHT22;68007;51.312;12.372;2023-07-31T14:24:15;22.20;83.90
3418;DHT22;68007;51.312;12.372;2023-07-31T14:26:42;22.20;83.80
3418;DHT22;68007;51.312;12.372;2023-07-31T14:29:10;22.20;83.40
3418;DHT22;68007;51.312;12.372;2023-07-31T14:31:37;22.20;83.50
3418;DHT22;68007;51.312;12.372;2023-07-31T14:34:05;22.20;83.40
3418;DHT22;68007;51.312;12.372;2023-07-31T14:36:32;22.10;83.80
3418;DHT22;68007;51.312;12.372;2023-07-31T14:39:00;22.20;84.00
3418;DHT22;68007;51.312;12.372;2023-07-31T14:41:29;22.20;83.50
3418;DHT22;68007;51.312;12.372;2023-07-31T14:43:56;22.20;83.50
3418;DHT22;68007;51.312;12.372;2023-07-31T14:46:24;22.20;83.70
3418;DHT22;68007;51.312;12.372;2023-07-31T14:48:51;22.20;83.40
3418;DHT22;68007;51.312;12.372;2023-07-31T14:51:19;22.20;82.90
3418;DHT22;68007;51.312;12.372;2023-07-31T14:53:46;22.20;83.00
3418;DHT22;68007;51.312;12.372;2023-07-31T14:56:14;22.20;83.30
3418;DHT22;68007;51.312;12.372;2023-07-31T14:58:43;22.20;83.40
3418;DHT22;68007;51.312;12.372;2023-07-31T15:01:10;22.20;83.20
3418;DHT22;68007;51.312;12.372;2023-07-31T15:03:38;22.20;82.40
3418;DHT22;68007;51.312;12.372;2023-07-31T15:06:05;22.10;82.10
3418;DHT22;68007;51.312;12.372;2023-07-31T15:08:34;22.10;82.30
3418;DHT22;68007;51.312;12.372;2023-07-31T15:11:02;22.00;82.10
3418;DHT22;68007;51.312;12.372;2023-07-31T15:13:30;22.00;82.00
3418;DHT22;68007;51.312;12.372;2023-07-31T15:15:59;22.00;82.40
3418;DHT22;68007;51.312;12.372;2023-07-31T15:18:26;22.00;82.00
3418;DHT22;68007;51.312;12.372;2023-07-31T15:20:54;22.00;82.20
3418;DHT22;68007;51.312;12.372;2023-07-31T15:23:22;22.00;82.20
3418;DHT22;68007;51.312;12.372;2023-07-31T15:25:50;22.00;82.30
3418;DHT22;68007;51.312;12.372;2023-07-31T15:28:18;21.90;82.60
3418;DHT22;68007;51.312;12.372;2023-07-31T15:30:45;22.00;82.60
3418;DHT22;68007;51.312;12.372;2023-07-31T15:33:14;22.00;82.40
3418;DHT22;68007;51.312;12.372;2023-07-31T15:35:42;22.00;82.20
3418;DHT22;68007;51.312;12.372;2023-07-31T15:38:09;21.90;82.40